Time;durP1;ratioP1;P1;durP2;ratioP2;P2;SDS_P1;SDS_P2;PMS_P1;PMS_P2;Temp;Humidity;BMP_temperature;BMP_pressure;BME280_temperature;BME280_humidity;BME280_pressure;Samples;Min_cycle;Max_cycle;Signal;HPM_P1;HPM_P2
2022/10/01 00:00:24;;;;;;;2.83;1.90;;;;;;;;;;5303355;28;20471;-65
2022/10/01 00:02:55;;;;;;;3.58;2.17;;;;;;;;;;5302178;28;20277;-65
2022/10/01 00:05:26;;;;;;;4.00;2.20;;;;;;;;;;5302521;28;20112;-65
2022/10/01 00:07:57;;;;;;;3.63;2.50;;;;;;;;;;5303374;28;20103;-65
2022/10/01 00:10:29;;;;;;;3.58;2.25;;;;;;;;;;5301778;28;20035;-66
2022/10/01 00:13:00;;;;;;;4.38;2.13;;;;;;;;;;5303292;28;20027;-66
2022/10/01 00:15:31;;;;;;;3.60;2.70;;;;;;;;;;5301629;28;20066;-66
2022/10/01 00:18:03;;;;;;;4.18;2.30;;;;;;;;;;5302915;28;20016;-66
2022/10/01 00:20:34;;;;;;;3.25;1.95;;;;;;;;;;5302473;28;20065;-65
2022/10/01 00:23:05;;;;;;;5.95;2.55;;;;;;;;;;5302117;28;20040;-66
2022/10/01 00:25:37;;;;;;;2.58;1.95;;;;;;;;;;5302378;28;20073;-65
2022/10/01 00:28:10;;;;;;;5.22;2.47;;;;;;;;;;5301955;28;20341;-64
2022/10/01 00:30:45;;;;;;;2.90;2.13;;;;;;;;;;5301209;28;20106;-64
2022/10/01 00:33:16;;;;;;;4.38;2.10;;;;;;;;;;5303027;28;20016;-64
2022/10/01 00:35:48;;;;;;;4.50;1.98;;;;;;;;;;5302060;28;20020;-64
2022/10/01 00:38:19;;;;;;;3.53;2.55;;;;;;;;;;5301873;28;20263;-64
2022/10/01 00:40:50;;;;;;;5.68;2.22;;;;;;;;;;5301943;28;20058;-64
2022/10/01 00:43:23;;;;;;;3.50;2.15;;;;;;;;;;5301731;28;20027;-65
2022/10/01 00:45:56;;;;;;;2.95;2.33;;;;;;;;;;5302126;28;20725;-65
2022/10/01 00:48:29;;;;;;;3.15;1.65;;;;;;;;;;5301772;28;20016;-66
2022/10/01 00:51:00;;;;;;;4.03;2.08;;;;;;;;;;5301618;28;20020;-65
2022/10/01 00:53:31;;;;;;;3.00;2.17;;;;;;;;;;5301337;28;20094;-65
2022/10/01 00:56:04;;;;;;;3.28;1.83;;;;;;;;;;5302289;28;20486;-65
2022/10/01 00:58:35;;;;;;;2.53;1.73;;;;;;;;;;5300729;28;20041;-66
2022/10/01 01:01:06;;;;;;;3.13;2.08;;;;;;;;;;5302155;28;20121;-66
2022/10/01 01:03:37;;;;;;;6.43;2.45;;;;;;;;;;5301153;28;20032;-66
2022/10/01 01:06:08;;;;;;;3.38;2.10;;;;;;;;;;5301257;28;20383;-66
2022/10/01 01:08:41;;;;;;;4.63;1.80;;;;;;;;;;5301461;28;20024;-66
2022/10/01 01:11:22;;;;;;;2.22;1.90;;;;;;;;;;5302323;28;20757;-66
2022/10/01 01:13:53;;;;;;;3.03;1.73;;;;;;;;;;5301054;28;20024;-64
2022/10/01 01:16:33;;;;;;;3.45;1.80;;;;;;;;;;5301818;28;20031;-65
2022/10/01 01:19:11;;;;;;;2.65;1.65;;;;;;;;;;5301269;28;20016;-64
2022/10/01 01:21:44;;;;;;;3.42;1.60;;;;;;;;;;5301656;28;20026;-65
2022/10/01 01:24:34;;;;;;;2.28;1.70;;;;;;;;;;5302014;28;20028;-66
2022/10/01 01:27:21;;;;;;;4.15;1.50;;;;;;;;;;5301019;28;20099;-66
2022/10/01 01:30:04;;;;;;;2.15;1.33;;;;;;;;;;5301489;28;20075;-65
2022/10/01 01:32:45;;;;;;;2.95;1.15;;;;;;;;;;5300558;28;20068;-66
2022/10/01 01:35:21;;;;;;;2.78;0.90;;;;;;;;;;5301784;28;20028;-65
2022/10/01 01:37:55;;;;;;;2.08;1.20;;;;;;;;;;5301677;28;20182;-65
2022/10/01 01:40:28;;;;;;;2.53;1.15;;;;;;;;;;5300379;28;20391;-64
2022/10/01 01:43:02;;;;;;;3.05;1.05;;;;;;;;;;5301918;28;20402;-65
2022/10/01 01:45:37;;;;;;;1.88;1.15;;;;;;;;;;5301211;28;20102;-64
2022/10/01 01:48:10;;;;;;;3.15;1.20;;;;;;;;;;5301169;28;20016;-64
2022/10/01 01:50:45;;;;;;;1.98;1.48;;;;;;;;;;5301167;28;20048;-64
2022/10/01 01:53:17;;;;;;;3.10;1.15;;;;;;;;;;5301606;28;20105;-65
2022/10/01 01:55:48;;;;;;;1.80;1.10;;;;;;;;;;5300223;28;20020;-65
2022/10/01 01:58:19;;;;;;;2.92;1.00;;;;;;;;;;5301513;28;20382;-64
2022/10/01 02:00:54;;;;;;;3.33;1.20;;;;;;;;;;5300284;28;20024;-65
2022/10/01 02:03:27;;;;;;;3.83;1.38;;;;;;;;;;5301031;28;20028;-65
2022/10/01 02:06:18;;;;;;;3.95;1.75;;;;;;;;;;5301791;28;20039;-66
2022/10/01 02:09:06;;;;;;;3.63;1.23;;;;;;;;;;5300450;28;20374;-65
2022/10/01 02:11:42;;;;;;;1.48;1.00;;;;;;;;;;5301026;28;20382;-65
2022/10/01 02:14:27;;;;;;;2.53;1.00;;;;;;;;;;5301651;28;20021;-65
2022/10/01 02:17:07;;;;;;;1.73;1.00;;;;;;;;;;5300881;28;20024;-65
2022/10/01 02:19:51;;;;;;;3.58;1.00;;;;;;;;;;5301195;28;20020;-65
2022/10/01 02:22:25;;;;;;;3.42;0.80;;;;;;;;;;5300972;28;20103;-65
2022/10/01 02:24:58;;;;;;;1.55;0.82;;;;;;;;;;5301569;28;20040;-64
2022/10/01 02:27:33;;;;;;;3.97;0.70;;;;;;;;;;5301349;28;20035;-65
2022/10/01 02:30:06;;;;;;;1.42;0.60;;;;;;;;;;5301247;28;20471;-65
2022/10/01 02:32:39;;;;;;;1.80;0.80;;;;;;;;;;5301026;28;20051;-65
2022/10/01 02:35:12;;;;;;;1.58;0.70;;;;;;;;;;5301323;28;20051;-65
2022/10/01 02:37:46;;;;;;;1.58;0.60;;;;;;;;;;5299831;28;20063;-65
2022/10/01 02:40:20;;;;;;;1.85;0.57;;;;;;;;;;5301481;28;20016;-65
2022/10/01 02:42:53;;;;;;;4.25;0.57;;;;;;;;;;5300114;28;20046;-65
2022/10/01 02:45:25;;;;;;;1.30;0.60;;;;;;;;;;5300830;28;20144;-65
2022/10/01 02:47:59;;;;;;;1.13;0.60;;;;;;;;;;5301039;28;20050;-65
2022/10/01 02:50:43;;;;;;;1.85;0.70;;;;;;;;;;5300349;28;20069;-65
2022/10/01 02:53:30;;;;;;;1.33;0.65;;;;;;;;;;5304752;28;20127;-64
2022/10/01 02:56:03;;;;;;;0.95;0.52;;;;;;;;;;5304924;28;20375;-64
2022/10/01 02:58:35;;;;;;;1.17;0.50;;;;;;;;;;5303382;28;20020;-64
2022/10/01 03:01:06;;;;;;;1.08;0.50;;;;;;;;;;5304610;28;20069;-65
2022/10/01 03:03:41;;;;;;;0.90;0.50;;;;;;;;;;5304149;28;20475;-66
2022/10/01 03:06:13;;;;;;;0.77;0.50;;;;;;;;;;5304010;28;20352;-65
2022/10/01 03:08:44;;;;;;;1.00;0.40;;;;;;;;;;5304042;28;20355;-65
2022/10/01 03:11:15;;;;;;;0.95;0.45;;;;;;;;;;5303954;28;20127;-64
2022/10/01 03:13:46;;;;;;;1.00;0.40;;;;;;;;;;5304039;28;20254;-64
2022/10/01 03:16:17;;;;;;;0.93;0.40;;;;;;;;;;5304516;28;20046;-64
2022/10/01 03:18:48;;;;;;;0.80;0.40;;;;;;;;;;5303066;28;20269;-65
2022/10/01 03:21:19;;;;;;;0.50;0.30;;;;;;;;;;5304442;28;20311;-65
2022/10/01 03:23:51;;;;;;;0.40;0.30;;;;;;;;;;5303687;28;20039;-65
2022/10/01 03:26:22;;;;;;;1.55;0.40;;;;;;;;;;5303896;28;20462;-65
2022/10/01 03:28:53;;;;;;;0.50;0.30;;;;;;;;;;5303743;28;20024;-65
2022/10/01 03:31:24;;;;;;;1.00;0.35;;;;;;;;;;5303896;28;20317;-65
2022/10/01 03:33:59;;;;;;;1.45;0.30;;;;;;;;;;5303095;28;20072;-65
2022/10/01 03:36:30;;;;;;;1.60;0.30;;;;;;;;;;5303450;28;20012;-65
2022/10/01 03:39:01;;;;;;;0.77;0.30;;;;;;;;;;5304251;28;20463;-65
2022/10/01 03:41:32;;;;;;;0.60;0.22;;;;;;;;;;5302616;28;20020;-65
2022/10/01 03:44:03;;;;;;;1.08;0.20;;;;;;;;;;5303980;28;20453;-64
2022/10/01 03:46:35;;;;;;;0.22;0.15;;;;;;;;;;5302604;28;20047;-65
2022/10/01 03:49:06;;;;;;;0.68;0.20;;;;;;;;;;5304223;28;20143;-65
2022/10/01 03:51:37;;;;;;;0.73;0.13;;;;;;;;;;5303432;28;20154;-65
2022/10/01 03:54:08;;;;;;;0.50;0.20;;;;;;;;;;5302954;28;20051;-65
2022/10/01 03:56:41;;;;;;;0.60;0.20;;;;;;;;;;5303141;28;20016;-65
2022/10/01 03:59:12;;;;;;;0.50;0.20;;;;;;;;;;5303640;28;20027;-64
2022/10/01 04:01:43;;;;;;;0.45;0.10;;;;;;;;;;5302311;28;20012;-64
2022/10/01 04:04:15;;;;;;;1.75;0.20;;;;;;;;;;5303323;28;20373;-64
2022/10/01 04:06:46;;;;;;;0.20;0.10;;;;;;;;;;5302822;28;20274;-64
2022/10/01 04:09:17;;;;;;;0.17;0.10;;;;;;;;;;5302517;28;20098;-64
2022/10/01 04:11:48;;;;;;;1.20;0.20;;;;;;;;;;5302750;28;20255;-66
2022/10/01 04:14:19;;;;;;;0.68;0.20;;;;;;;;;;5302525;28;20278;-66
2022/10/01 04:16:51;;;;;;;0.28;0.10;;;;;;;;;;5302575;28;20027;-65
2022/10/01 04:19:22;;;;;;;0.10;0.10;;;;;;;;;;5303014;28;20459;-65
2022/10/01 04:21:53;;;;;;;0.30;0.10;;;;;;;;;;5301748;28;20439;-66
2022/10/01 04:24:24;;;;;;;0.20;0.10;;;;;;;;;;5302587;28;20760;-66
2022/10/01 04:26:55;;;;;;;0.30;0.10;;;;;;;;;;5302689;28;20266;-65
2022/10/01 04:29:26;;;;;;;0.47;0.13;;;;;;;;;;5301536;28;20273;-65
2022/10/01 04:31:58;;;;;;;1.20;0.10;;;;;;;;;;5303024;28;20262;-66
2022/10/01 04:37:19;;;;;;;0.50;0.10;;;;;;;;;;5302713;28;20020;-65
2022/10/01 04:39:50;;;;;;;0.43;0.17;;;;;;;;;;5302637;28;20024;-66
2022/10/01 04:42:22;;;;;;;0.13;0.10;;;;;;;;;;5302840;28;20032;-65
2022/10/01 04:44:53;;;;;;;2.08;0.17;;;;;;;;;;5301168;28;20356;-65
2022/10/01 04:47:24;;;;;;;0.73;0.20;;;;;;;;;;5302484;28;20042;-65
2022/10/01 04:49:55;;;;;;;0.60;0.13;;;;;;;;;;5301771;28;20020;-65
2022/10/01 04:52:26;;;;;;;0.50;0.30;;;;;;;;;;5302126;28;20331;-66
2022/10/01 04:54:57;;;;;;;0.88;0.20;;;;;;;;;;5302226;28;20285;-65
2022/10/01 04:57:28;;;;;;;0.57;0.20;;;;;;;;;;5301234;28;20278;-66
2022/10/01 05:00:00;;;;;;;0.93;0.30;;;;;;;;;;5302575;28;20319;-66
2022/10/01 05:02:33;;;;;;;0.68;0.25;;;;;;;;;;5302081;28;20305;-66
2022/10/01 05:05:05;;;;;;;3.55;0.30;;;;;;;;;;5301599;28;20051;-66
2022/10/01 05:07:38;;;;;;;1.05;0.30;;;;;;;;;;5301665;28;20026;-66
2022/10/01 05:10:11;;;;;;;1.02;0.45;;;;;;;;;;5302403;28;20012;-66
2022/10/01 05:12:42;;;;;;;0.63;0.22;;;;;;;;;;5301038;28;20107;-64
2022/10/01 05:15:14;;;;;;;1.30;0.30;;;;;;;;;;5301873;28;20099;-64
2022/10/01 05:17:45;;;;;;;1.00;0.30;;;;;;;;;;5300888;28;20085;-65
2022/10/01 05:20:18;;;;;;;1.15;0.60;;;;;;;;;;5302083;28;20073;-66
2022/10/01 05:22:49;;;;;;;3.25;0.50;;;;;;;;;;5301447;28;20039;-66
2022/10/01 05:25:20;;;;;;;1.38;0.40;;;;;;;;;;5301446;28;20060;-66
2022/10/01 05:27:51;;;;;;;3.22;0.35;;;;;;;;;;5301573;28;20020;-65
2022/10/01 05:30:22;;;;;;;0.65;0.40;;;;;;;;;;5302024;28;20458;-65
2022/10/01 05:32:55;;;;;;;2.15;0.50;;;;;;;;;;5300707;28;20732;-66
2022/10/01 05:35:26;;;;;;;1.02;0.50;;;;;;;;;;5301150;28;20103;-65
2022/10/01 05:37:58;;;;;;;1.77;0.50;;;;;;;;;;5301704;28;20480;-66
2022/10/01 05:40:29;;;;;;;0.73;0.50;;;;;;;;;;5300493;28;20016;-66
2022/10/01 05:43:03;;;;;;;1.95;0.60;;;;;;;;;;5301609;28;20013;-65
2022/10/01 05:45:34;;;;;;;2.28;0.60;;;;;;;;;;5301366;28;20512;-65
2022/10/01 05:48:07;;;;;;;3.33;0.80;;;;;;;;;;5301134;28;20016;-65
2022/10/01 05:50:39;;;;;;;1.10;0.65;;;;;;;;;;5301421;28;20482;-65
2022/10/01 05:53:10;;;;;;;2.30;0.70;;;;;;;;;;5301072;28;20109;-66
2022/10/01 05:55:41;;;;;;;1.20;0.70;;;;;;;;;;5301341;28;20012;-64
2022/10/01 05:58:13;;;;;;;4.32;0.85;;;;;;;;;;5301997;28;20021;-66
2022/10/01 06:00:44;;;;;;;2.20;0.75;;;;;;;;;;5300395;28;20455;-66
2022/10/01 06:03:15;;;;;;;3.00;0.90;;;;;;;;;;5301600;28;20031;-66
2022/10/01 06:05:46;;;;;;;1.75;0.90;;;;;;;;;;5301096;28;20475;-64
2022/10/01 06:08:18;;;;;;;2.75;0.88;;;;;;;;;;5300649;28;20631;-67
2022/10/01 06:10:49;;;;;;;1.95;1.20;;;;;;;;;;5301286;28;20391;-66
2022/10/01 06:13:20;;;;;;;6.03;1.35;;;;;;;;;;5301952;28;20016;-65
2022/10/01 06:15:52;;;;;;;7.45;1.90;;;;;;;;;;5300217;28;20145;-65
2022/10/01 06:18:23;;;;;;;3.75;1.33;;;;;;;;;;5301425;28;20277;-65
2022/10/01 06:20:56;;;;;;;4.30;1.50;;;;;;;;;;5300361;28;20367;-66
2022/10/01 06:23:27;;;;;;;2.75;1.70;;;;;;;;;;5301074;28;20035;-65
2022/10/01 06:25:59;;;;;;;4.20;2.00;;;;;;;;;;5303128;28;20024;-65
2022/10/01 06:28:31;;;;;;;5.18;2.10;;;;;;;;;;5304118;28;20014;-65
2022/10/01 06:31:03;;;;;;;2.72;2.10;;;;;;;;;;5305287;28;20066;-66
2022/10/01 06:33:34;;;;;;;4.32;2.38;;;;;;;;;;5304867;28;20085;-65
2022/10/01 06:36:05;;;;;;;5.93;2.65;;;;;;;;;;5304418;28;20043;-65
2022/10/01 06:38:36;;;;;;;2.70;2.40;;;;;;;;;;5304422;28;20012;-65
2022/10/01 06:41:08;;;;;;;7.60;2.95;;;;;;;;;;5305187;28;20301;-65
2022/10/01 06:43:39;;;;;;;7.00;2.42;;;;;;;;;;5303643;28;20062;-65
2022/10/01 06:46:10;;;;;;;6.03;2.83;;;;;;;;;;5305293;28;20065;-65
2022/10/01 06:48:41;;;;;;;3.97;2.97;;;;;;;;;;5304263;28;20285;-65
2022/10/01 06:51:13;;;;;;;3.80;2.85;;;;;;;;;;5304529;28;20481;-66
2022/10/01 06:53:44;;;;;;;7.10;2.95;;;;;;;;;;5304186;28;20845;-67
2022/10/01 06:56:15;;;;;;;5.68;2.53;;;;;;;;;;5304064;28;20265;-66
2022/10/01 06:58:46;;;;;;;3.60;2.47;;;;;;;;;;5304161;28;20285;-65
2022/10/01 07:01:19;;;;;;;3.47;2.25;;;;;;;;;;5304954;28;20262;-66
2022/10/01 07:03:53;;;;;;;3.75;2.42;;;;;;;;;;5303459;28;20089;-65
2022/10/01 07:06:24;;;;;;;2.50;2.00;;;;;;;;;;5304223;28;20388;-64
2022/10/01 07:08:56;;;;;;;5.80;2.28;;;;;;;;;;5304623;28;20069;-65
2022/10/01 07:11:27;;;;;;;7.37;2.50;;;;;;;;;;5303407;28;20098;-66
2022/10/01 07:14:00;;;;;;;4.82;2.80;;;;;;;;;;5304605;28;20254;-66
2022/10/01 07:16:31;;;;;;;4.35;2.30;;;;;;;;;;5304006;28;20327;-66
2022/10/01 07:19:02;;;;;;;6.18;2.95;;;;;;;;;;5303487;28;20012;-65
2022/10/01 07:21:33;;;;;;;7.68;3.70;;;;;;;;;;5303913;28;20073;-66
2022/10/01 07:24:05;;;;;;;6.68;2.80;;;;;;;;;;5304422;28;20304;-66
2022/10/01 07:26:36;;;;;;;5.10;3.20;;;;;;;;;;5302998;28;20277;-66
2022/10/01 07:29:09;;;;;;;5.77;3.47;;;;;;;;;;5304341;28;20076;-66
2022/10/01 07:31:40;;;;;;;6.28;2.88;;;;;;;;;;5303443;28;20262;-66
2022/10/01 07:34:11;;;;;;;4.35;3.33;;;;;;;;;;5304592;28;20027;-66
2022/10/01 07:36:44;;;;;;;3.90;2.85;;;;;;;;;;5303667;28;20050;-65
2022/10/01 07:39:15;;;;;;;7.43;3.17;;;;;;;;;;5303701;28;20302;-64
2022/10/01 07:41:46;;;;;;;8.90;3.90;;;;;;;;;;5303741;28;20059;-65
2022/10/01 07:44:18;;;;;;;4.97;3.65;;;;;;;;;;5304301;28;20060;-65
2022/10/01 07:46:49;;;;;;;5.18;3.22;;;;;;;;;;5302870;28;20258;-66
2022/10/01 07:49:20;;;;;;;6.55;4.05;;;;;;;;;;5304090;28;20119;-65
2022/10/01 07:51:53;;;;;;;8.60;4.70;;;;;;;;;;5303371;28;20012;-65
2022/10/01 07:54:24;;;;;;;9.73;4.72;;;;;;;;;;5302562;28;20048;-65
2022/10/01 07:56:56;;;;;;;6.40;4.25;;;;;;;;;;5303629;28;20008;-66
2022/10/01 07:59:27;;;;;;;5.93;4.00;;;;;;;;;;5302577;28;20024;-66
2022/10/01 08:01:58;;;;;;;7.35;4.00;;;;;;;;;;5303529;28;20046;-65
2022/10/01 08:07:19;;;;;;;6.95;4.72;;;;;;;;;;5302980;28;20119;-66
2022/10/01 08:09:50;;;;;;;9.23;4.65;;;;;;;;;;5302934;28;20103;-66
2022/10/01 08:12:21;;;;;;;8.02;4.82;;;;;;;;;;5303389;28;20262;-66
2022/10/01 08:14:52;;;;;;;8.00;5.55;;;;;;;;;;5301972;28;20266;-66
2022/10/01 08:17:23;;;;;;;6.20;4.88;;;;;;;;;;5302841;28;20277;-66
2022/10/01 08:19:54;;;;;;;6.38;4.53;;;;;;;;;;5303148;28;20324;-66
2022/10/01 08:22:26;;;;;;;6.38;4.00;;;;;;;;;;5302024;28;20365;-67
2022/10/01 08:24:57;;;;;;;6.13;4.07;;;;;;;;;;5303066;28;20309;-65
2022/10/01 08:27:28;;;;;;;6.43;3.53;;;;;;;;;;5301925;28;20027;-66
2022/10/01 08:29:59;;;;;;;7.60;3.28;;;;;;;;;;5303147;28;20031;-65
2022/10/01 08:32:31;;;;;;;6.68;2.70;;;;;;;;;;5302167;28;20016;-66
2022/10/01 08:35:03;;;;;;;3.75;2.30;;;;;;;;;;5302299;28;20456;-65
2022/10/01 08:37:35;;;;;;;2.58;1.63;;;;;;;;;;5302352;28;20047;-65
2022/10/01 08:40:06;;;;;;;3.90;1.73;;;;;;;;;;5303032;28;20667;-65
2022/10/01 08:42:48;;;;;;;4.93;2.10;;;;;;;;;;5301760;28;20886;-65
2022/10/01 08:45:27;;;;;;;2.53;1.33;;;;;;;;;;5302895;28;20498;-65
2022/10/01 08:47:58;;;;;;;;;;;;;;;;;;5302715;28;20103;-65
2022/10/01 08:50:33;;;;;;;4.20;0.98;;;;;;;;;;5301169;28;20311;-65
2022/10/01 08:53:09;;;;;;;3.75;1.20;;;;;;;;;;5302720;28;20446;-65
2022/10/01 08:55:41;;;;;;;4.07;1.35;;;;;;;;;;5301296;28;20020;-65
2022/10/01 08:58:17;;;;;;;5.93;0.93;;;;;;;;;;5302682;28;20016;-64
2022/10/01 09:00:48;;;;;;;5.13;0.90;;;;;;;;;;5298299;28;20020;-65
2022/10/01 09:03:19;;;;;;;5.63;0.82;;;;;;;;;;5301916;28;20046;-65
2022/10/01 09:05:57;;;;;;;4.85;1.20;;;;;;;;;;5301645;28;20012;-65
2022/10/01 09:08:44;;;;;;;3.25;0.85;;;;;;;;;;5301155;28;20108;-65
2022/10/01 09:11:15;;;;;;;5.88;1.45;;;;;;;;;;5301683;28;20016;-65
2022/10/01 09:13:58;;;;;;;5.07;1.40;;;;;;;;;;5301819;28;20028;-65
2022/10/01 09:16:32;;;;;;;5.80;1.38;;;;;;;;;;5301732;28;20435;-65
2022/10/01 09:19:22;;;;;;;8.57;1.85;;;;;;;;;;5301347;28;20047;-66
2022/10/01 09:21:57;;;;;;;7.82;1.85;;;;;;;;;;5301500;28;20028;-65
2022/10/01 09:24:29;;;;;;;13.15;1.45;;;;;;;;;;5300931;28;20388;-66
2022/10/01 09:27:00;;;;;;;9.48;1.33;;;;;;;;;;5302378;28;20023;-65
2022/10/01 09:29:37;;;;;;;8.57;1.73;;;;;;;;;;5301417;28;20383;-66
2022/10/01 09:32:12;;;;;;;10.38;1.30;;;;;;;;;;5300632;28;20027;-66
2022/10/01 09:34:44;;;;;;;13.20;1.55;;;;;;;;;;5301451;28;20020;-65
2022/10/01 09:37:22;;;;;;;13.32;2.83;;;;;;;;;;5301786;28;20012;-65
2022/10/01 09:40:05;;;;;;;8.38;0.82;;;;;;;;;;5300201;28;20028;-65
2022/10/01 09:42:36;;;;;;;8.75;1.38;;;;;;;;;;5301139;28;20015;-65
2022/10/01 09:45:12;;;;;;;8.98;1.17;;;;;;;;;;5300930;28;20295;-64
2022/10/01 09:47:45;;;;;;;9.38;1.27;;;;;;;;;;5301225;28;20280;-65
2022/10/01 09:50:20;;;;;;;7.28;1.00;;;;;;;;;;5301512;28;20022;-65
2022/10/01 09:52:52;;;;;;;9.50;1.13;;;;;;;;;;5299780;28;20099;-65
2022/10/01 09:55:23;;;;;;;10.38;1.10;;;;;;;;;;5301227;28;20127;-65
2022/10/01 09:57:54;;;;;;;10.93;1.60;;;;;;;;;;5301244;28;20016;-66
2022/10/01 10:00:26;;;;;;;14.55;1.23;;;;;;;;;;5302357;28;20012;-65
2022/10/01 10:02:57;;;;;;;13.57;1.70;;;;;;;;;;5306090;28;20031;-66
2022/10/01 10:05:29;;;;;;;7.30;0.60;;;;;;;;;;5304926;28;20035;-66
2022/10/01 10:08:10;;;;;;;9.95;0.90;;;;;;;;;;5305023;28;20266;-65
2022/10/01 10:10:53;;;;;;;13.20;1.33;;;;;;;;;;5305231;28;20024;-66
2022/10/01 10:13:30;;;;;;;8.15;0.80;;;;;;;;;;5304824;28;20035;-65
2022/10/01 10:16:06;;;;;;;9.23;0.70;;;;;;;;;;5305846;28;20635;-65
2022/10/01 10:18:38;;;;;;;12.60;1.17;;;;;;;;;;5305526;28;20398;-65
2022/10/01 10:21:18;;;;;;;10.73;1.35;;;;;;;;;;5304601;28;20050;-66
2022/10/01 10:24:00;;;;;;;12.20;0.98;;;;;;;;;;5305054;28;20051;-66
2022/10/01 10:26:33;;;;;;;12.40;1.27;;;;;;;;;;5305165;28;20050;-65
2022/10/01 10:29:07;;;;;;;11.60;0.90;;;;;;;;;;5304837;28;20020;-66
2022/10/01 10:31:42;;;;;;;12.68;1.08;;;;;;;;;;5304809;28;20016;-65
2022/10/01 10:34:15;;;;;;;8.45;1.13;;;;;;;;;;5304684;28;20012;-65
2022/10/01 10:36:46;;;;;;;11.02;1.30;;;;;;;;;;5305167;28;20020;-65
2022/10/01 10:39:18;;;;;;;11.70;1.13;;;;;;;;;;5305421;28;20038;-64
2022/10/01 10:41:50;;;;;;;7.50;0.87;;;;;;;;;;5303732;28;20020;-66
2022/10/01 10:44:22;;;;;;;9.82;0.73;;;;;;;;;;5304890;28;20402;-65
2022/10/01 10:46:58;;;;;;;10.57;0.90;;;;;;;;;;5304422;28;20020;-66
2022/10/01 10:49:31;;;;;;;10.80;0.85;;;;;;;;;;5303463;28;20028;-66
2022/10/01 10:52:03;;;;;;;10.55;0.80;;;;;;;;;;5304998;28;20095;-65
2022/10/01 10:54:39;;;;;;;7.35;0.65;;;;;;;;;;5303859;28;20048;-66
2022/10/01 10:57:10;;;;;;;7.90;1.15;;;;;;;;;;5303843;28;20102;-66
2022/10/01 10:59:53;;;;;;;11.07;0.88;;;;;;;;;;5304225;28;20370;-66
2022/10/01 11:02:29;;;;;;;7.20;1.52;;;;;;;;;;5303976;28;20060;-66
2022/10/01 11:05:15;;;;;;;10.02;0.80;;;;;;;;;;5304696;28;20453;-66
2022/10/01 11:07:47;;;;;;;12.82;1.02;;;;;;;;;;5304086;28;20024;-66
2022/10/01 11:10:33;;;;;;;8.27;1.10;;;;;;;;;;5303802;28;20012;-66
2022/10/01 11:13:16;;;;;;;11.95;0.85;;;;;;;;;;5303856;28;20471;-65
2022/10/01 11:16:03;;;;;;;11.77;1.42;;;;;;;;;;5303682;28;20042;-66
2022/10/01 11:18:34;;;;;;;6.95;0.70;;;;;;;;;;5303604;28;20016;-65
2022/10/01 11:21:05;;;;;;;8.65;0.80;;;;;;;;;;5304767;28;20029;-65
2022/10/01 11:23:45;;;;;;;9.95;0.88;;;;;;;;;;5303199;28;20209;-65
2022/10/01 11:26:28;;;;;;;9.48;0.90;;;;;;;;;;5304414;28;20024;-66
2022/10/01 11:29:02;;;;;;;6.30;0.90;;;;;;;;;;5304421;28;20032;-66
2022/10/01 11:31:36;;;;;;;10.20;0.68;;;;;;;;;;5302993;28;20024;-67
2022/10/01 11:34:09;;;;;;;9.35;1.45;;;;;;;;;;5303712;28;20487;-67
2022/10/01 11:36:57;;;;;;;14.15;1.77;;;;;;;;;;5303530;28;20066;-67
2022/10/01 11:39:30;;;;;;;6.57;0.73;;;;;;;;;;5302654;28;20125;-66
2022/10/01 11:42:04;;;;;;;9.18;1.13;;;;;;;;;;5304046;28;20020;-67
2022/10/01 11:44:41;;;;;;;8.95;0.98;;;;;;;;;;5302769;28;20030;-67
2022/10/01 11:47:15;;;;;;;9.93;1.00;;;;;;;;;;5304242;28;20481;-67
2022/10/01 11:50:02;;;;;;;9.02;1.50;;;;;;;;;;5303448;28;20063;-67
2022/10/01 11:52:39;;;;;;;7.75;0.95;;;;;;;;;;5303060;28;20328;-67
2022/10/01 12:01:22;;;;;;;8.05;0.85;;;;;;;;;;5282924;28;20403;-67
2022/10/01 12:04:02;;;;;;;7.95;0.85;;;;;;;;;;5281918;28;20472;-67
2022/10/01 12:06:33;;;;;;;9.98;1.08;;;;;;;;;;5281079;28;20369;-66
2022/10/01 12:09:08;;;;;;;7.97;1.15;;;;;;;;;;5282703;28;20027;-66
2022/10/01 12:11:42;;;;;;;8.65;1.30;;;;;;;;;;5281806;28;20299;-67
2022/10/01 12:14:16;;;;;;;8.65;0.95;;;;;;;;;;5272411;28;20044;-66
2022/10/01 12:16:55;;;;;;;9.88;1.33;;;;;;;;;;5274880;28;20112;-66
2022/10/01 12:19:26;;;;;;;;;;;;;;;;;;5280637;28;20016;-66
2022/10/01 12:22:11;;;;;;;8.85;1.00;;;;;;;;;;5279937;28;19904;-66
2022/10/01 12:24:43;;;;;;;11.00;0.90;;;;;;;;;;5279528;28;20075;-65
2022/10/01 12:27:33;;;;;;;10.77;1.17;;;;;;;;;;5280786;28;20020;-66
2022/10/01 12:30:04;;;;;;;8.77;0.70;;;;;;;;;;5281727;28;20025;-66
2022/10/01 12:32:51;;;;;;;10.87;0.97;;;;;;;;;;5280656;28;20008;-66
